sensor_id;sensor_type;location;lat;lon;timestamp;pressure;altitude;pressure_sealevel;temperature
71564;BMP180;59391;52.504;13.438;2023-11-21T00:00:29;100398.00;;;12.80
71564;BMP180;59391;52.504;13.438;2023-11-21T00:02:55;100412.00;;;12.70
71564;BMP180;59391;52.504;13.438;2023-11-21T00:05:20;100408.00;;;12.70
71564;BMP180;59391;52.504;13.438;2023-11-21T00:07:48;100405.00;;;12.70
71564;BMP180;59391;52.504;13.438;2023-11-21T00:10:14;100416.00;;;12.60
71564;BMP180;59391;52.504;13.438;2023-11-21T00:12:40;100419.00;;;12.50
71564;BMP180;59391;52.504;13.438;2023-11-21T00:15:08;100420.00;;;12.50
71564;BMP180;59391;52.504;13.438;2023-11-21T00:17:37;100427.00;;;12.50
71564;BMP180;59391;52.504;13.438;2023-11-21T00:20:05;100426.00;;;12.40
71564;BMP180;59391;52.504;13.438;2023-11-21T00:22:36;100428.00;;;12.40
71564;BMP180;59391;52.504;13.438;2023-11-21T00:25:02;100436.00;;;12.30
71564;BMP180;59391;52.504;13.438;2023-11-21T00:27:29;100429.00;;;12.30
71564;BMP180;59391;52.504;13.438;2023-11-21T00:29:55;100422.00;;;12.20
71564;BMP180;59391;52.504;13.438;2023-11-21T00:32:21;100434.00;;;12.20
71564;BMP180;59391;52.504;13.438;2023-11-21T00:34:46;100438.00;;;12.10
71564;BMP180;59391;52.504;13.438;2023-11-21T00:37:12;100443.00;;;12.10
71564;BMP180;59391;52.504;13.438;2023-11-21T00:39:38;100447.00;;;12.00
71564;BMP180;59391;52.504;13.438;2023-11-21T00:42:03;100443.00;;;12.00
71564;BMP180;59391;52.504;13.438;2023-11-21T00:44:30;100448.00;;;12.00
71564;BMP180;59391;52.504;13.438;2023-11-21T00:46:56;100457.00;;;12.00
71564;BMP180;59391;52.504;13.438;2023-11-21T00:49:21;100457.00;;;11.90
71564;BMP180;59391;52.504;13.438;2023-11-21T00:51:47;100458.00;;;11.90
71564;BMP180;59391;52.504;13.438;2023-11-21T00:54:13;100458.00;;;11.80
71564;BMP180;59391;52.504;13.438;2023-11-21T00:56:38;100455.00;;;11.80
71564;BMP180;59391;52.504;13.438;2023-11-21T00:59:05;100462.00;;;11.80
71564;BMP180;59391;52.504;13.438;2023-11-21T01:01:31;100465.00;;;11.70
71564;BMP180;59391;52.504;13.438;2023-11-21T01:03:56;100473.00;;;11.70
71564;BMP180;59391;52.504;13.438;2023-11-21T01:06:22;100476.00;;;11.70
71564;BMP180;59391;52.504;13.438;2023-11-21T01:08:47;100477.00;;;11.60
71564;BMP180;59391;52.504;13.438;2023-11-21T01:11:13;100475.00;;;11.60
71564;BMP180;59391;52.504;13.438;2023-11-21T01:13:39;100471.00;;;11.60
71564;BMP180;59391;52.504;13.438;2023-11-21T01:16:06;100485.00;;;11.60
71564;BMP180;59391;52.504;13.438;2023-11-21T01:18:32;100476.00;;;11.50
71564;BMP180;59391;52.504;13.438;2023-11-21T01:20:58;100489.00;;;11.50
71564;BMP180;59391;52.504;13.438;2023-11-21T01:23:26;100494.00;;;11.50
71564;BMP180;59391;52.504;13.438;2023-11-21T01:25:52;100500.00;;;11.50
71564;BMP180;59391;52.504;13.438;2023-11-21T01:28:18;100505.00;;;11.40
71564;BMP180;59391;52.504;13.438;2023-11-21T01:30:45;100511.00;;;11.40
71564;BMP180;59391;52.504;13.438;2023-11-21T01:33:11;100506.00;;;11.40
71564;BMP180;59391;52.504;13.438;2023-11-21T01:35:37;100509.00;;;11.40
71564;BMP180;59391;52.504;13.438;2023-11-21T01:38:02;100504.00;;;11.30
71564;BMP180;59391;52.504;13.438;2023-11-21T01:40:29;100508.00;;;11.30
71564;BMP180;59391;52.504;13.438;2023-11-21T01:42:56;100507.00;;;11.30
71564;BMP180;59391;52.504;13.438;2023-11-21T01:45:22;100506.00;;;11.30
71564;BMP180;59391;52.504;13.438;2023-11-21T01:47:50;100510.00;;;11.30
71564;BMP180;59391;52.504;13.438;2023-11-21T01:50:17;100509.00;;;11.30
71564;BMP180;59391;52.504;13.438;2023-11-21T01:52:45;100510.00;;;11.20
71564;BMP180;59391;52.504;13.438;2023-11-21T01:55:12;100519.00;;;11.20
71564;BMP180;59391;52.504;13.438;2023-11-21T01:57:39;100508.00;;;11.20
71564;BMP180;59391;52.504;13.438;2023-11-21T02:00:06;100522.00;;;11.10
71564;BMP180;59391;52.504;13.438;2023-11-21T02:02:45;100533.00;;;11.10
71564;BMP180;59391;52.504;13.438;2023-11-21T02:05:12;100527.00;;;11.10
71564;BMP180;59391;52.504;13.438;2023-11-21T02:07:42;100527.00;;;11.00
71564;BMP180;59391;52.504;13.438;2023-11-21T02:10:14;100527.00;;;11.00
71564;BMP180;59391;52.504;13.438;2023-11-21T02:12:41;100536.00;;;11.00
71564;BMP180;59391;52.504;13.438;2023-11-21T02:15:10;100533.00;;;11.00
71564;BMP180;59391;52.504;13.438;2023-11-21T02:17:43;100532.00;;;10.90
71564;BMP180;59391;52.504;13.438;2023-11-21T02:20:13;100543.00;;;10.90
71564;BMP180;59391;52.504;13.438;2023-11-21T02:22:51;100541.00;;;10.90
71564;BMP180;59391;52.504;13.438;2023-11-21T02:25:28;100549.00;;;10.90
71564;BMP180;59391;52.504;13.438;2023-11-21T02:27:55;100542.00;;;10.90
71564;BMP180;59391;52.504;13.438;2023-11-21T02:30:24;100540.00;;;10.80
71564;BMP180;59391;52.504;13.438;2023-11-21T02:33:01;100547.00;;;10.80
71564;BMP180;59391;52.504;13.438;2023-11-21T02:35:26;100549.00;;;10.80
71564;BMP180;59391;52.504;13.438;2023-11-21T02:37:53;100554.00;;;10.80
71564;BMP180;59391;52.504;13.438;2023-11-21T02:40:19;100554.00;;;10.80
71564;BMP180;59391;52.504;13.438;2023-11-21T02:42:47;100552.00;;;10.80
71564;BMP180;59391;52.504;13.438;2023-11-21T02:45:14;100561.00;;;10.80
71564;BMP180;59391;52.504;13.438;2023-11-21T02:47:44;100563.00;;;10.80
71564;BMP180;59391;52.504;13.438;2023-11-21T02:50:10;100557.00;;;10.80
71564;BMP180;59391;52.504;13.438;2023-11-21T02:52:36;100551.00;;;10.80
71564;BMP180;59391;52.504;13.438;2023-11-21T02:55:03;100560.00;;;10.80
71564;BMP180;59391;52.504;13.438;2023-11-21T02:57:29;100556.00;;;10.80
71564;BMP180;59391;52.504;13.438;2023-11-21T02:59:55;100557.00;;;10.80
71564;BMP180;59391;52.504;13.438;2023-11-21T03:02:21;100556.00;;;10.80
71564;BMP180;59391;52.504;13.438;2023-11-21T03:04:47;100568.00;;;10.80
71564;BMP180;59391;52.504;13.438;2023-11-21T03:07:15;100560.00;;;10.70
71564;BMP180;59391;52.504;13.438;2023-11-21T03:09:40;100566.00;;;10.70
71564;BMP180;59391;52.504;13.438;2023-11-21T03:12:07;100576.00;;;10.70
71564;BMP180;59391;52.504;13.438;2023-11-21T03:14:34;100570.00;;;10.70
71564;BMP180;59391;52.504;13.438;2023-11-21T03:16:59;100571.00;;;10.70
71564;BMP180;59391;52.504;13.438;2023-11-21T03:19:25;100575.00;;;10.70
71564;BMP180;59391;52.504;13.438;2023-11-21T03:21:51;100579.00;;;10.70
71564;BMP180;59391;52.504;13.438;2023-11-21T03:24:18;100588.00;;;10.60
71564;BMP180;59391;52.504;13.438;2023-11-21T03:26:46;100588.00;;;10.60
71564;BMP180;59391;52.504;13.438;2023-11-21T03:29:12;100589.00;;;10.60
71564;BMP180;59391;52.504;13.438;2023-11-21T03:31:38;100593.00;;;10.60
71564;BMP180;59391;52.504;13.438;2023-11-21T03:34:04;100588.00;;;10.60
71564;BMP180;59391;52.504;13.438;2023-11-21T03:36:29;100607.00;;;10.60
71564;BMP180;59391;52.504;13.438;2023-11-21T03:38:55;100609.00;;;10.60
71564;BMP180;59391;52.504;13.438;2023-11-21T03:41:21;100602.00;;;10.60
71564;BMP180;59391;52.504;13.438;2023-11-21T03:43:46;100610.00;;;10.60
71564;BMP180;59391;52.504;13.438;2023-11-21T03:46:12;100601.00;;;10.60
71564;BMP180;59391;52.504;13.438;2023-11-21T03:48:38;100607.00;;;10.60
71564;BMP180;59391;52.504;13.438;2023-11-21T03:51:04;100615.00;;;10.60
71564;BMP180;59391;52.504;13.438;2023-11-21T03:53:30;100617.00;;;10.60
71564;BMP180;59391;52.504;13.438;2023-11-21T03:55:55;100619.00;;;10.60
71564;BMP180;59391;52.504;13.438;2023-11-21T03:58:21;100620.00;;;10.60
71564;BMP180;59391;52.504;13.438;2023-11-21T04:00:47;100630.00;;;10.60
71564;BMP180;59391;52.504;13.438;2023-11-21T04:03:15;100644.00;;;10.60
71564;BMP180;59391;52.504;13.438;2023-11-21T04:05:41;100635.00;;;10.60
71564;BMP180;59391;52.504;13.438;2023-11-21T04:08:07;100635.00;;;10.60
71564;BMP180;59391;52.504;13.438;2023-11-21T04:10:33;100627.00;;;10.60
71564;BMP180;59391;52.504;13.438;2023-11-21T04:12:58;100646.00;;;10.50
71564;BMP180;59391;52.504;13.438;2023-11-21T04:15:25;100639.00;;;10.50
71564;BMP180;59391;52.504;13.438;2023-11-21T04:17:51;100646.00;;;10.50
71564;BMP180;59391;52.504;13.438;2023-11-21T04:20:17;100648.00;;;10.50
71564;BMP180;59391;52.504;13.438;2023-11-21T04:22:44;100648.00;;;10.40
71564;BMP180;59391;52.504;13.438;2023-11-21T04:25:12;100648.00;;;10.40
71564;BMP180;59391;52.504;13.438;2023-11-21T04:27:43;100656.00;;;10.40
71564;BMP180;59391;52.504;13.438;2023-11-21T04:30:11;100666.00;;;10.30
71564;BMP180;59391;52.504;13.438;2023-11-21T04:32:37;100661.00;;;10.30
71564;BMP180;59391;52.504;13.438;2023-11-21T04:35:05;100656.00;;;10.30
71564;BMP180;59391;52.504;13.438;2023-11-21T04:37:30;100653.00;;;10.30
71564;BMP180;59391;52.504;13.438;2023-11-21T04:39:56;100665.00;;;10.30
71564;BMP180;59391;52.504;13.438;2023-11-21T04:42:22;100675.00;;;10.30
71564;BMP180;59391;52.504;13.438;2023-11-21T04:44:48;100673.00;;;10.30
71564;BMP180;59391;52.504;13.438;2023-11-21T04:47:14;100675.00;;;10.30
71564;BMP180;59391;52.504;13.438;2023-11-21T04:49:42;100678.00;;;10.30
71564;BMP180;59391;52.504;13.438;2023-11-21T04:52:09;100673.00;;;10.30
71564;BMP180;59391;52.504;13.438;2023-11-21T04:54:35;100679.00;;;10.30
71564;BMP180;59391;52.504;13.438;2023-11-21T04:57:01;100682.00;;;10.20
71564;BMP180;59391;52.504;13.438;2023-11-21T04:59:27;100672.00;;;10.20
71564;BMP180;59391;52.504;13.438;2023-11-21T05:01:53;100678.00;;;10.20
71564;BMP180;59391;52.504;13.438;2023-11-21T05:04:20;100694.00;;;10.20
71564;BMP180;59391;52.504;13.438;2023-11-21T05:06:47;100693.00;;;10.20
71564;BMP180;59391;52.504;13.438;2023-11-21T05:09:13;100696.00;;;10.20
71564;BMP180;59391;52.504;13.438;2023-11-21T05:11:39;100707.00;;;10.20
71564;BMP180;59391;52.504;13.438;2023-11-21T05:14:06;100711.00;;;10.20
71564;BMP180;59391;52.504;13.438;2023-11-21T05:16:32;100708.00;;;10.20
71564;BMP180;59391;52.504;13.438;2023-11-21T05:18:57;100717.00;;;10.20
71564;BMP180;59391;52.504;13.438;2023-11-21T05:21:30;100719.00;;;10.20
71564;BMP180;59391;52.504;13.438;2023-11-21T05:23:57;100705.00;;;10.30
71564;BMP180;59391;52.504;13.438;2023-11-21T05:26:23;100721.00;;;10.20
71564;BMP180;59391;52.504;13.438;2023-11-21T05:28:48;100713.00;;;10.30
71564;BMP180;59391;52.504;13.438;2023-11-21T05:31:14;100714.00;;;10.30
71564;BMP180;59391;52.504;13.438;2023-11-21T05:33:40;100723.00;;;10.30
71564;BMP180;59391;52.504;13.438;2023-11-21T05:36:07;100728.00;;;10.30
71564;BMP180;59391;52.504;13.438;2023-11-21T05:38:34;100730.00;;;10.30
71564;BMP180;59391;52.504;13.438;2023-11-21T05:41:01;100737.00;;;10.30
71564;BMP180;59391;52.504;13.438;2023-11-21T05:43:26;100736.00;;;10.30
71564;BMP180;59391;52.504;13.438;2023-11-21T05:45:53;100738.00;;;10.30
71564;BMP180;59391;52.504;13.438;2023-11-21T05:48:19;100749.00;;;10.30
71564;BMP180;59391;52.504;13.438;2023-11-21T05:50:44;100752.00;;;10.30
71564;BMP180;59391;52.504;13.438;2023-11-21T05:53:10;100748.00;;;10.30
71564;BMP180;59391;52.504;13.438;2023-11-21T05:55:36;100754.00;;;10.20
71564;BMP180;59391;52.504;13.438;2023-11-21T05:58:02;100754.00;;;10.30
71564;BMP180;59391;52.504;13.438;2023-11-21T06:00:28;100755.00;;;10.20
71564;BMP180;59391;52.504;13.438;2023-11-21T06:02:53;100759.00;;;10.20
71564;BMP180;59391;52.504;13.438;2023-11-21T06:05:22;100762.00;;;10.30
71564;BMP180;59391;52.504;13.438;2023-11-21T06:07:52;100770.00;;;10.30
71564;BMP180;59391;52.504;13.438;2023-11-21T06:10:20;100771.00;;;10.30
71564;BMP180;59391;52.504;13.438;2023-11-21T06:12:46;100771.00;;;10.30
71564;BMP180;59391;52.504;13.438;2023-11-21T06:15:12;100777.00;;;10.20
71564;BMP180;59391;52.504;13.438;2023-11-21T06:17:42;100785.00;;;10.20
71564;BMP180;59391;52.504;13.438;2023-11-21T06:20:10;100789.00;;;10.20
71564;BMP180;59391;52.504;13.438;2023-11-21T06:22:43;100792.00;;;10.20
71564;BMP180;59391;52.504;13.438;2023-11-21T06:25:10;100785.00;;;10.20
71564;BMP180;59391;52.504;13.438;2023-11-21T06:27:42;100797.00;;;10.20
71564;BMP180;59391;52.504;13.438;2023-11-21T06:30:08;100806.00;;;10.20
71564;BMP180;59391;52.504;13.438;2023-11-21T06:32:36;100806.00;;;10.20
71564;BMP180;59391;52.504;13.438;2023-11-21T06:35:03;100807.00;;;10.20
71564;BMP180;59391;52.504;13.438;2023-11-21T06:37:30;100813.00;;;10.20
71564;BMP180;59391;52.504;13.438;2023-11-21T06:39:56;100818.00;;;10.20
71564;BMP180;59391;52.504;13.438;2023-11-21T06:42:24;100833.00;;;10.20
71564;BMP180;59391;52.504;13.438;2023-11-21T06:44:50;100830.00;;;10.10
71564;BMP180;59391;52.504;13.438;2023-11-21T06:47:25;100838.00;;;10.10
71564;BMP180;59391;52.504;13.438;2023-11-21T06:49:52;100836.00;;;10.10
71564;BMP180;59391;52.504;13.438;2023-11-21T06:52:19;100838.00;;;10.10
71564;BMP180;59391;52.504;13.438;2023-11-21T06:54:45;100833.00;;;10.10
71564;BMP180;59391;52.504;13.438;2023-11-21T06:57:12;100847.00;;;10.10
71564;BMP180;59391;52.504;13.438;2023-11-21T06:59:38;100845.00;;;10.10
71564;BMP180;59391;52.504;13.438;2023-11-21T07:02:04;100857.00;;;10.10
71564;BMP180;59391;52.504;13.438;2023-11-21T07:04:36;100846.00;;;10.10
71564;BMP180;59391;52.504;13.438;2023-11-21T07:07:04;100847.00;;;10.10
71564;BMP180;59391;52.504;13.438;2023-11-21T07:09:30;100849.00;;;10.10
71564;BMP180;59391;52.504;13.438;2023-11-21T07:11:56;100854.00;;;10.00
71564;BMP180;59391;52.504;13.438;2023-11-21T07:14:22;100846.00;;;10.10
71564;BMP180;59391;52.504;13.438;2023-11-21T07:16:48;100858.00;;;10.10
71564;BMP180;59391;52.504;13.438;2023-11-21T07:19:14;100857.00;;;10.10
71564;BMP180;59391;52.504;13.438;2023-11-21T07:21:40;100874.00;;;10.10
71564;BMP180;59391;52.504;13.438;2023-11-21T07:24:07;100857.00;;;10.10
71564;BMP180;59391;52.504;13.438;2023-11-21T07:26:34;100865.00;;;10.10
71564;BMP180;59391;52.504;13.438;2023-11-21T07:29:01;100869.00;;;10.00
71564;BMP180;59391;52.504;13.438;2023-11-21T07:31:28;100859.00;;;10.00
71564;BMP180;59391;52.504;13.438;2023-11-21T07:33:55;100864.00;;;10.00
71564;BMP180;59391;52.504;13.438;2023-11-21T07:36:23;100874.00;;;10.00
71564;BMP180;59391;52.504;13.438;2023-11-21T07:38:50;100883.00;;;10.00
71564;BMP180;59391;52.504;13.438;2023-11-21T07:41:16;100883.00;;;10.00
71564;BMP180;59391;52.504;13.438;2023-11-21T07:43:43;100880.00;;;10.00
71564;BMP180;59391;52.504;13.438;2023-11-21T07:46:10;100885.00;;;10.00
71564;BMP180;59391;52.504;13.438;2023-11-21T07:48:39;100881.00;;;10.00
71564;BMP180;59391;52.504;13.438;2023-11-21T07:51:05;100892.00;;;10.00
71564;BMP180;59391;52.504;13.438;2023-11-21T07:53:31;100888.00;;;10.00
71564;BMP180;59391;52.504;13.438;2023-11-21T07:55:58;100901.00;;;10.00
71564;BMP180;59391;52.504;13.438;2023-11-21T07:58:24;100883.00;;;10.00
71564;BMP180;59391;52.504;13.438;2023-11-21T08:00:50;100891.00;;;10.00
71564;BMP180;59391;52.504;13.438;2023-11-21T08:03:16;100898.00;;;10.00
71564;BMP180;59391;52.504;13.438;2023-11-21T08:05:42;100895.00;;;10.00
71564;BMP180;59391;52.504;13.438;2023-11-21T08:08:08;100911.00;;;10.00
71564;BMP180;59391;52.504;13.438;2023-11-21T08:10:34;100922.00;;;10.00
71564;BMP180;59391;52.504;13.438;2023-11-21T08:13:05;100914.00;;;10.00
71564;BMP180;59391;52.504;13.438;2023-11-21T08:15:31;100931.00;;;10.00
71564;BMP180;59391;52.504;13.438;2023-11-21T08:17:58;100920.00;;;10.10
71564;BMP180;59391;52.504;13.438;2023-11-21T08:20:26;100933.00;;;10.10
71564;BMP180;59391;52.504;13.438;2023-11-21T08:22:53;100925.00;;;10.10
71564;BMP180;59391;52.504;13.438;2023-11-21T08:25:18;100915.00;;;10.00
71564;BMP180;59391;52.504;13.438;2023-11-21T08:27:46;100920.00;;;10.00
71564;BMP180;59391;52.504;13.438;2023-11-21T08:30:12;100929.00;;;10.00
71564;BMP180;59391;52.504;13.438;2023-11-21T08:32:42;100918.00;;;10.00
71564;BMP180;59391;52.504;13.438;2023-11-21T08:35:08;100929.00;;;10.00
71564;BMP180;59391;52.504;13.438;2023-11-21T08:37:34;100933.00;;;10.00
71564;BMP180;59391;52.504;13.438;2023-11-21T08:40:04;100937.00;;;10.00
71564;BMP180;59391;52.504;13.438;2023-11-21T08:42:34;100932.00;;;10.00
71564;BMP180;59391;52.504;13.438;2023-11-21T08:44:59;100941.00;;;10.00
71564;BMP180;59391;52.504;13.438;2023-11-21T08:47:25;100943.00;;;10.10
71564;BMP180;59391;52.504;13.438;2023-11-21T08:49:52;100945.00;;;10.00
71564;BMP180;59391;52.504;13.438;2023-11-21T08:52:20;100954.00;;;10.00
71564;BMP180;59391;52.504;13.438;2023-11-21T08:54:51;100959.00;;;10.10
71564;BMP180;59391;52.504;13.438;2023-11-21T08:57:25;100959.00;;;10.10
71564;BMP180;59391;52.504;13.438;2023-11-21T08:59:51;100965.00;;;10.10
71564;BMP180;59391;52.504;13.438;2023-11-21T09:02:22;100963.00;;;10.10
71564;BMP180;59391;52.504;13.438;2023-11-21T09:04:50;100969.00;;;10.10
71564;BMP180;59391;52.504;13.438;2023-11-21T09:07:20;100973.00;;;10.10
71564;BMP180;59391;52.504;13.438;2023-11-21T09:09:47;100974.00;;;10.10
71564;BMP180;59391;52.504;13.438;2023-11-21T09:12:13;100985.00;;;10.10
71564;BMP180;59391;52.504;13.438;2023-11-21T09:14:39;100985.00;;;10.10
71564;BMP180;59391;52.504;13.438;2023-11-21T09:17:05;100984.00;;;10.10
71564;BMP180;59391;52.504;13.438;2023-11-21T09:19:37;101000.00;;;10.10
71564;BMP180;59391;52.504;13.438;2023-11-21T09:22:03;100989.00;;;10.10
71564;BMP180;59391;52.504;13.438;2023-11-21T09:24:33;101000.00;;;10.10
71564;BMP180;59391;52.504;13.438;2023-11-21T09:26:59;101007.00;;;10.10
71564;BMP180;59391;52.504;13.438;2023-11-21T09:29:26;101012.00;;;10.10
71564;BMP180;59391;52.504;13.438;2023-11-21T09:31:52;101008.00;;;10.10
71564;BMP180;59391;52.504;13.438;2023-11-21T09:34:20;101011.00;;;10.10
71564;BMP180;59391;52.504;13.438;2023-11-21T09:36:46;101005.00;;;10.00
71564;BMP180;59391;52.504;13.438;2023-11-21T09:39:12;101019.00;;;10.00
71564;BMP180;59391;52.504;13.438;2023-11-21T09:41:52;101024.00;;;10.00
71564;BMP180;59391;52.504;13.438;2023-11-21T09:45:03;101029.00;;;10.10
71564;BMP180;59391;52.504;13.438;2023-11-21T09:47:35;101032.00;;;10.10
71564;BMP180;59391;52.504;13.438;2023-11-21T09:50:05;101019.00;;;10.10
71564;BMP180;59391;52.504;13.438;2023-11-21T09:53:02;101038.00;;;10.10
71564;BMP180;59391;52.504;13.438;2023-11-21T09:55:34;101037.00;;;10.20
71564;BMP180;59391;52.504;13.438;2023-11-21T09:58:04;101045.00;;;10.20
71564;BMP180;59391;52.504;13.438;2023-11-21T10:00:33;101046.00;;;10.30
71564;BMP180;59391;52.504;13.438;2023-11-21T10:02:59;101040.00;;;10.30
71564;BMP180;59391;52.504;13.438;2023-11-21T10:05:25;101037.00;;;10.30
71564;BMP180;59391;52.504;13.438;2023-11-21T10:07:52;101043.00;;;10.30
71564;BMP180;59391;52.504;13.438;2023-11-21T10:10:20;101043.00;;;10.30
71564;BMP180;59391;52.504;13.438;2023-11-21T10:12:50;101044.00;;;10.20
71564;BMP180;59391;52.504;13.438;2023-11-21T10:15:22;101043.00;;;10.20
71564;BMP180;59391;52.504;13.438;2023-11-21T10:17:52;101046.00;;;10.20
71564;BMP180;59391;52.504;13.438;2023-11-21T10:20:20;101044.00;;;10.20
71564;BMP180;59391;52.504;13.438;2023-11-21T10:22:46;101048.00;;;10.20
71564;BMP180;59391;52.504;13.438;2023-11-21T10:25:13;101053.00;;;10.20
71564;BMP180;59391;52.504;13.438;2023-11-21T10:27:42;101056.00;;;10.20
71564;BMP180;59391;52.504;13.438;2023-11-21T10:30:10;101062.00;;;10.10
71564;BMP180;59391;52.504;13.438;2023-11-21T10:32:39;101055.00;;;10.10
71564;BMP180;59391;52.504;13.438;2023-11-21T10:35:07;101064.00;;;10.10
71564;BMP180;59391;52.504;13.438;2023-11-21T10:37:37;101070.00;;;10.10
71564;BMP180;59391;52.504;13.438;2023-11-21T10:40:09;101061.00;;;10.10
71564;BMP180;59391;52.504;13.438;2023-11-21T10:42:38;101066.00;;;10.10
71564;BMP180;59391;52.504;13.438;2023-11-21T10:45:05;101068.00;;;10.10
71564;BMP180;59391;52.504;13.438;2023-11-21T10:47:44;101074.00;;;10.10
71564;BMP180;59391;52.504;13.438;2023-11-21T10:50:10;101069.00;;;10.10
71564;BMP180;59391;52.504;13.438;2023-11-21T10:52:45;101083.00;;;10.10
71564;BMP180;59391;52.504;13.438;2023-11-21T10:55:20;101086.00;;;10.10
71564;BMP180;59391;52.504;13.438;2023-11-21T10:57:54;101082.00;;;10.10
71564;BMP180;59391;52.504;13.438;2023-11-21T11:00:20;101088.00;;;10.10
71564;BMP180;59391;52.504;13.438;2023-11-21T11:02:52;101081.00;;;10.10
71564;BMP180;59391;52.504;13.438;2023-11-21T11:05:23;101093.00;;;10.00
71564;BMP180;59391;52.504;13.438;2023-11-21T11:08:08;101090.00;;;10.00
71564;BMP180;59391;52.504;13.438;2023-11-21T11:10:34;101094.00;;;10.00
71564;BMP180;59391;52.504;13.438;2023-11-21T11:13:00;101082.00;;;10.00
71564;BMP180;59391;52.504;13.438;2023-11-21T11:15:28;101094.00;;;10.00
71564;BMP180;59391;52.504;13.438;2023-11-21T11:17:54;101092.00;;;10.00
71564;BMP180;59391;52.504;13.438;2023-11-21T11:20:36;101086.00;;;10.00
71564;BMP180;59391;52.504;13.438;2023-11-21T11:23:36;101095.00;;;10.00
71564;BMP180;59391;52.504;13.438;2023-11-21T11:26:37;101094.00;;;10.00
71564;BMP180;59391;52.504;13.438;2023-11-21T11:29:42;101086.00;;;10.00
71564;BMP180;59391;52.504;13.438;2023-11-21T11:32:40;101123.00;;;10.00
71564;BMP180;59391;52.504;13.438;2023-11-21T11:35:42;101120.00;;;9.90
71564;BMP180;59391;52.504;13.438;2023-11-21T11:38:10;101123.00;;;9.90
71564;BMP180;59391;52.504;13.438;2023-11-21T11:40:46;101122.00;;;9.90
71564;BMP180;59391;52.504;13.438;2023-11-21T11:43:13;101133.00;;;9.90
71564;BMP180;59391;52.504;13.438;2023-11-21T11:45:38;101132.00;;;9.90
71564;BMP180;59391;52.504;13.438;2023-11-21T11:48:08;101128.00;;;9.90
71564;BMP180;59391;52.504;13.438;2023-11-21T11:50:33;101137.00;;;9.90
71564;BMP180;59391;52.504;13.438;2023-11-21T11:53:14;101144.00;;;9.90
71564;BMP180;59391;52.504;13.438;2023-11-21T11:55:40;101150.00;;;9.90
71564;BMP180;59391;52.504;13.438;2023-11-21T11:58:07;101151.00;;;9.90
71564;BMP180;59391;52.504;13.438;2023-11-21T12:00:34;101151.00;;;9.90
71564;BMP180;59391;52.504;13.438;2023-11-21T12:03:05;101149.00;;;9.80
71564;BMP180;59391;52.504;13.438;2023-11-21T12:05:35;101140.00;;;9.90
71564;BMP180;59391;52.504;13.438;2023-11-21T12:08:06;101164.00;;;9.80
71564;BMP180;59391;52.504;13.438;2023-11-21T12:10:34;101172.00;;;9.80
71564;BMP180;59391;52.504;13.438;2023-11-21T12:13:07;101173.00;;;9.80
71564;BMP180;59391;52.504;13.438;2023-11-21T12:15:34;101176.00;;;9.80
71564;BMP180;59391;52.504;13.438;2023-11-21T12:18:00;101185.00;;;9.80
71564;BMP180;59391;52.504;13.438;2023-11-21T12:20:27;101178.00;;;9.80
71564;BMP180;59391;52.504;13.438;2023-11-21T12:22:58;101186.00;;;9.70
71564;BMP180;59391;52.504;13.438;2023-11-21T12:25:29;101180.00;;;9.70
71564;BMP180;59391;52.504;13.438;2023-11-21T12:27:58;101193.00;;;9.70
71564;BMP180;59391;52.504;13.438;2023-11-21T12:30:30;101191.00;;;9.70
71564;BMP180;59391;52.504;13.438;2023-11-21T12:32:59;101199.00;;;9.70
71564;BMP180;59391;52.504;13.438;2023-11-21T12:35:31;101198.00;;;9.70
71564;BMP180;59391;52.504;13.438;2023-11-21T12:38:00;101208.00;;;9.70
71564;BMP180;59391;52.504;13.438;2023-11-21T12:40:28;101207.00;;;9.60
71564;BMP180;59391;52.504;13.438;2023-11-21T12:42:57;101217.00;;;9.60
71564;BMP180;59391;52.504;13.438;2023-11-21T12:45:24;101212.00;;;9.60
71564;BMP180;59391;52.504;13.438;2023-11-21T12:48:04;101221.00;;;9.50
71564;BMP180;59391;52.504;13.438;2023-11-21T12:50:34;101214.00;;;9.60
71564;BMP180;59391;52.504;13.438;2023-11-21T12:53:08;101209.00;;;9.60
71564;BMP180;59391;52.504;13.438;2023-11-21T12:55:36;101213.00;;;9.50
71564;BMP180;59391;52.504;13.438;2023-11-21T12:58:07;101219.00;;;9.60
71564;BMP180;59391;52.504;13.438;2023-11-21T13:00:48;101222.00;;;9.60
71564;BMP180;59391;52.504;13.438;2023-11-21T13:03:16;101220.00;;;9.60
71564;BMP180;59391;52.504;13.438;2023-11-21T13:05:49;101225.00;;;9.50
71564;BMP180;59391;52.504;13.438;2023-11-21T13:08:17;101230.00;;;9.50
71564;BMP180;59391;52.504;13.438;2023-11-21T13:10:45;101235.00;;;9.50
71564;BMP180;59391;52.504;13.438;2023-11-21T13:13:13;101239.00;;;9.50
71564;BMP180;59391;52.504;13.438;2023-11-21T13:15:50;101239.00;;;9.50
71564;BMP180;59391;52.504;13.438;2023-11-21T13:18:17;101252.00;;;9.50
71564;BMP180;59391;52.504;13.438;2023-11-21T13:20:43;101252.00;;;9.50
71564;BMP180;59391;52.504;13.438;2023-11-21T13:23:10;101249.00;;;9.50
71564;BMP180;59391;52.504;13.438;2023-11-21T13:25:38;101250.00;;;9.50
71564;BMP180;59391;52.504;13.438;2023-11-21T13:28:07;101261.00;;;9.50
71564;BMP180;59391;52.504;13.438;2023-11-21T13:30:33;101253.00;;;9.50
71564;BMP180;59391;52.504;13.438;2023-11-21T13:33:03;101262.00;;;9.50
71564;BMP180;59391;52.504;13.438;2023-11-21T13:35:37;101263.00;;;9.40
71564;BMP180;59391;52.504;13.438;2023-11-21T13:38:17;101271.00;;;9.40
71564;BMP180;59391;52.504;13.438;2023-11-21T13:40:49;101268.00;;;9.40
71564;BMP180;59391;52.504;13.438;2023-11-21T13:43:18;101268.00;;;9.40
71564;BMP180;59391;52.504;13.438;2023-11-21T13:45:47;101276.00;;;9.40
71564;BMP180;59391;52.504;13.438;2023-11-21T13:48:13;101275.00;;;9.30
71564;BMP180;59391;52.504;13.438;2023-11-21T13:50:43;101277.00;;;9.30
71564;BMP180;59391;52.504;13.438;2023-11-21T13:53:24;101287.00;;;9.30